Quinhagak, Alaska
Current Conditions -  °F | °C
As of 11:56 PM on Tuesday 21 Oct 2014 (Local Time) from PAQH Reporting Station
Broken Clouds Broken Clouds  
Wind Chill:   Ceiling: 10000
Heat Index: 17°   Visibility: 10mi
Dew Point: 15°   Wind: 10mph
Humidity: 92%   Direction: 320°NW
Pressure: 29.53"   Gusts: NA
Location:  59.75°N, 161.92°W
Report Text: PAQH 220756Z AUTO 32009KT 10SM FEW075 BKN100 M08/M09 A2953 RMK AO2 SLP002 T10831094 FZRANO
Loading
Personal Weather Stations






























Interactive Weather Map
Tropical Storm Tracking
New forecast layout! Learn more

10-Day Weather Forecast

Advertisements
Track Severe Weather on mobile